Darstellungsparameter: Aktuell verwendete Einstellungen:
Skalierung der Graphiken ... ?
xyx+y,   Skalierungsfaktor:      Skalierung: Modus: x, Faktor: 1
Darstellungszeitraum ... ?
Vom - - bis: - -   Zeitraum: 06.05.2021 - 06.05.2021
Min/Max/Avg-Anzeige ... ?
Zeige MMA aktuell
Zeige MMA Monat
Zeige MMA alles
Zeige --A aktuell
Zeige --A Monat
Zeige --A alles
Keine MMA-Anzeige
MMA:
Average (ber die Originaldaten)
MMA-Basis: 06.05.2021 - 06.05.2021
Quicknavigation für Darstellung... ?
Tage:      1T, 2T, 3T, 5T -1T -2T -3T -5T +1T +2T +3T +5T
Wochen: 1W, 2W, 3W -1W -2W -3W +1W +2W +3W
Monate: 1M, 3M, 6M -1M -3M -6M +1M +3M +6M
Jahre:    1J, 3J, 5J, 10J -1J -3J -5J -10J +1J +3J +5J +10J
Nutze für die Darstellung ... ?
Originaldaten oder Mittelwerte auf ...
Stundenbasis Tagesbasis Wochenbasis
Monatsbasis Jahresbasis      Datenbasis: Original-Daten
Darstellen als:
Statistik (Auto) Statistik J:M      Darstellung:

Der gewünschte Datumsbereich war nicht gültig/verfügbar und wurde korrigiert....
Das angegebene Enddatum (05.06.2029 23:59:59) liegt in der Zukunft.
Das angegebene Startdatum (09.03.2029 00:00:00) liegt in der Zukunft.


Zur Graphik,    zurück zur Übersicht aller Sensoren.
 
Tabellarische Datenbersicht: ?
 
Sensor: Nr:Datum:Temp:Abs-Feuchte:Windchill:Wind:
Aussen-T/F 1 06-05-2021 02:00:00 5.1 C 6.02 g/m*3 5.1 C 1.6 km/h
2 06-05-2021 02:05:00 5.1 C 6.02 g/m*3 5.1 C 1.6 km/h
3 06-05-2021 02:10:00 5.1 C 6.09 g/m*3 5.1 C 3.2 km/h
4 06-05-2021 02:15:00 5.2 C 6.13 g/m*3 5.2 C 4.8 km/h
5 06-05-2021 02:20:00 5.3 C 6.17 g/m*3 3.94 C 6.4 km/h
6 06-05-2021 02:25:00 5.3 C 6.1 g/m*3 3.94 C 6.4 km/h
7 06-05-2021 02:30:00 5.4 C 6.14 g/m*3 5.4 C 4.8 km/h
8 06-05-2021 02:35:00 5.4 C 6.14 g/m*3 5.4 C 4.8 km/h
9 06-05-2021 02:40:00 5.4 C 6.14 g/m*3 5.4 C 4.8 km/h
10 06-05-2021 02:45:00 5.4 C 6.14 g/m*3 3.58 C 8.1 km/h
11 06-05-2021 02:50:00 5.4 C 6.14 g/m*3 3.2 C 9.7 km/h
12 06-05-2021 02:55:00 5.4 C 6.14 g/m*3 5.4 C 4.8 km/h
13 06-05-2021 03:00:00 5.4 C 6.14 g/m*3 5.4 C 4.8 km/h
14 06-05-2021 03:05:00 5.3 C 6.03 g/m*3 5.3 C 3.2 km/h
15 06-05-2021 03:10:00 5.3 C 6.03 g/m*3 5.3 C 4.8 km/h
16 06-05-2021 03:15:00 5.2 C 5.99 g/m*3 5.2 C 0 km/h
17 06-05-2021 03:20:00 5.1 C 6.02 g/m*3 5.1 C 1.6 km/h
18 06-05-2021 03:25:00 5 C 5.98 g/m*3 5 C 1.6 km/h
19 06-05-2021 03:30:00 4.9 C 5.94 g/m*3 4.9 C 1.6 km/h
20 06-05-2021 03:35:00 4.9 C 5.94 g/m*3 4.9 C 0 km/h
21 06-05-2021 03:40:00 4.8 C 5.9 g/m*3 4.8 C 0 km/h
22 06-05-2021 03:45:00 4.7 C 5.86 g/m*3 4.7 C 0 km/h
23 06-05-2021 03:50:00 4.6 C 5.89 g/m*3 4.6 C 1.6 km/h
24 06-05-2021 03:55:00 4.6 C 5.89 g/m*3 3.13 C 6.4 km/h
25 06-05-2021 04:00:00 4.7 C 6 g/m*3 3.25 C 6.4 km/h
Sensor: Nr:Datum:Temp:Abs-Feuchte:Windchill:Wind:
Aussen-T/F 26 06-05-2021 04:05:00 4.9 C 6.08 g/m*3 1.97 C 12.9 km/h
27 06-05-2021 04:10:00 5.2 C 6.13 g/m*3 3.34 C 8.1 km/h
28 06-05-2021 04:15:00 5.4 C 6.21 g/m*3 2.58 C 12.9 km/h
29 06-05-2021 04:20:00 5.4 C 6.14 g/m*3 3.58 C 8.1 km/h
30 06-05-2021 04:25:00 5.4 C 6.14 g/m*3 5.4 C 4.8 km/h
31 06-05-2021 04:30:00 5.3 C 6.1 g/m*3 5.3 C 1.6 km/h
32 06-05-2021 04:35:00 5.2 C 5.99 g/m*3 5.2 C 3.2 km/h
33 06-05-2021 04:40:00 5 C 5.91 g/m*3 5 C 0 km/h
34 06-05-2021 04:45:00 4.8 C 5.9 g/m*3 4.8 C 3.2 km/h
35 06-05-2021 04:50:00 4.7 C 5.86 g/m*3 4.7 C 0 km/h
36 06-05-2021 04:55:00 4.7 C 5.93 g/m*3 4.7 C 0 km/h
37 06-05-2021 05:00:00 4.7 C 5.93 g/m*3 4.7 C 0 km/h
38 06-05-2021 05:05:00 4.6 C 5.96 g/m*3 4.6 C 0 km/h
39 06-05-2021 05:10:00 4.6 C 5.96 g/m*3 4.6 C 1.6 km/h
40 06-05-2021 05:15:00 4.6 C 5.96 g/m*3 4.6 C 0 km/h
41 06-05-2021 05:20:00 4.6 C 5.96 g/m*3 4.6 C 0 km/h
42 06-05-2021 05:25:00 4.6 C 5.96 g/m*3 4.6 C 4.8 km/h
43 06-05-2021 05:30:00 4.5 C 5.98 g/m*3 4.5 C 1.6 km/h
44 06-05-2021 05:35:00 4.5 C 5.98 g/m*3 4.5 C 1.6 km/h
45 06-05-2021 05:40:00 4.5 C 5.98 g/m*3 4.5 C 4.8 km/h
46 06-05-2021 05:45:00 4.5 C 5.98 g/m*3 4.5 C 1.6 km/h
47 06-05-2021 05:50:00 4.5 C 5.98 g/m*3 4.5 C 0 km/h
48 06-05-2021 05:55:00 4.4 C 5.94 g/m*3 4.4 C 3.2 km/h
49 06-05-2021 06:00:00 4.4 C 5.94 g/m*3 4.4 C 4.8 km/h
50 06-05-2021 06:05:00 4.5 C 6.05 g/m*3 4.5 C 3.2 km/h
Sensor: Nr:Datum:Temp:Abs-Feuchte:Windchill:Wind:
Aussen-T/F 51 06-05-2021 06:10:00 4.6 C 6.09 g/m*3 2.64 C 8.1 km/h
52 06-05-2021 06:15:00 4.7 C 6.06 g/m*3 2.37 C 9.7 km/h
53 06-05-2021 06:20:00 4.8 C 6.1 g/m*3 4.8 C 1.6 km/h
54 06-05-2021 06:25:00 4.8 C 6.1 g/m*3 4.8 C 0 km/h
55 06-05-2021 06:30:00 4.8 C 6.1 g/m*3 4.8 C 0 km/h
56 06-05-2021 06:35:00 4.9 C 6.14 g/m*3 2.99 C 8.1 km/h
57 06-05-2021 06:40:00 5 C 6.18 g/m*3 3.59 C 6.4 km/h
58 06-05-2021 06:45:00 5.1 C 6.16 g/m*3 5.1 C 3.2 km/h
59 06-05-2021 06:50:00 5.1 C 6.16 g/m*3 5.1 C 4.8 km/h
60 06-05-2021 06:55:00 5.2 C 6.2 g/m*3 5.2 C 0 km/h
61 06-05-2021 07:00:00 5.2 C 6.2 g/m*3 5.2 C 0 km/h
62 06-05-2021 07:05:00 5.2 C 6.2 g/m*3 5.2 C 4.8 km/h
63 06-05-2021 07:10:00 5.3 C 6.24 g/m*3 5.3 C 1.6 km/h
64 06-05-2021 07:15:00 5.4 C 6.28 g/m*3 3.2 C 9.7 km/h
65 06-05-2021 07:20:00 5.6 C 6.29 g/m*3 3.81 C 8.1 km/h
66 06-05-2021 07:25:00 5.7 C 6.33 g/m*3 3.56 C 9.7 km/h
67 06-05-2021 07:30:00 5.8 C 6.3 g/m*3 4.05 C 8.1 km/h
68 06-05-2021 07:35:00 5.9 C 6.35 g/m*3 3.8 C 9.7 km/h
69 06-05-2021 07:40:00 6 C 6.39 g/m*3 4.28 C 8.1 km/h
70 06-05-2021 07:45:00 6.1 C 6.36 g/m*3 4.4 C 8.1 km/h
71 06-05-2021 07:50:00 6.1 C 6.36 g/m*3 4.04 C 9.7 km/h
72 06-05-2021 07:55:00 6.2 C 6.4 g/m*3 4.15 C 9.7 km/h
73 06-05-2021 08:00:00 6.3 C 6.44 g/m*3 4.64 C 8.1 km/h
74 06-05-2021 08:05:00 6.4 C 6.48 g/m*3 4.75 C 8.1 km/h
75 06-05-2021 08:10:00 6.4 C 6.41 g/m*3 4.39 C 9.7 km/h
Sensor: Nr:Datum:Temp:Abs-Feuchte:Windchill:Wind:
Aussen-T/F 76 06-05-2021 08:15:00 6.5 C 6.45 g/m*3 4.87 C 8.1 km/h
77 06-05-2021 08:20:00 6.7 C 6.53 g/m*3 5.11 C 8.1 km/h
78 06-05-2021 08:25:00 6.8 C 6.58 g/m*3 4.87 C 9.7 km/h
79 06-05-2021 08:30:00 6.9 C 6.62 g/m*3 4.99 C 9.7 km/h
80 06-05-2021 08:35:00 7.1 C 6.63 g/m*3 5.23 C 9.7 km/h
81 06-05-2021 08:40:00 7.2 C 6.59 g/m*3 5.35 C 9.7 km/h
82 06-05-2021 08:45:00 7.3 C 6.72 g/m*3 5.81 C 8.1 km/h
83 06-05-2021 08:50:00 7.4 C 6.68 g/m*3 5.58 C 9.7 km/h
84 06-05-2021 08:55:00 7.4 C 6.68 g/m*3 5.28 C 11.3 km/h
85 06-05-2021 09:00:00 7.5 C 6.72 g/m*3 6.05 C 8.1 km/h
86 06-05-2021 09:05:00 7.6 C 6.77 g/m*3 5.53 C 11.3 km/h
87 06-05-2021 09:10:00 7.9 C 6.9 g/m*3 5.89 C 11.3 km/h

Legende:
   Min
   Max


Maximal/Minimal-Werte vom 06.05.2021 - 06.05.2021

Sensor Min Max Avg
Temp
(Aussen-T/F)
4.4 °C
06-05-2021  05:55:00
7.9 °C
06-05-2021  09:10:00
5.41 °C
Abs-Feuchte
(Aussen-T/F)
5.86 g/m*3
06-05-2021  03:45:00
6.9 g/m*3
06-05-2021  09:10:00
6.1 g/m*3
Windchill
(Aussen-T/F)
1.97 C
06-05-2021  04:05:00
6.05 C
06-05-2021  09:00:00
4.54 C

Die Daten stammen von einer Davis Vantage Pro 2 Wetter-Station und werden unter Linux mit der Software wview2wettercgi und aufbereitet. Alle Angaben erfolgen ohne Gewähr für ihre Vollständigkeit oder Richtigkeit.
Kontakt: Rainer Krienke krienke@uni-koblenz.de . Meine Webseiten an der Uni Koblenz oder privat.
Version: $Revision: 0.78 $